Time,TemperatureF,DewpointF,PressureIn,WindDirection,WindDirectionDegrees,WindSpeedMPH,WindSpeedGustMPH,Humidity,HourlyPrecipIn,Conditions,Clouds,dailyrainin,SolarRadiationWatts/m^2,SoftwareType,DateUTC
2014-07-29 00:14:00,69.2,51.0,29.93,SW,214,0.0,1.0,53,0.00,,,0.00,0,weatherlink.com 1.10,2014-07-29 07:14:00,
2014-07-29 00:29:00,68.1,51.0,29.93,SW,214,0.0,0.0,55,0.00,,,0.00,0,weatherlink.com 1.10,2014-07-29 07:29:00,
2014-07-29 00:44:00,67.5,52.0,29.93,SW,214,0.0,1.0,57,0.00,,,0.00,0,weatherlink.com 1.10,2014-07-29 07:44:00,
2014-07-29 00:59:00,67.6,52.0,29.93,SW,214,0.0,1.0,57,0.00,,,0.00,0,weatherlink.com 1.10,2014-07-29 07:59:00,
2014-07-29 01:14:00,67.2,50.0,29.93,SSW,213,0.0,2.0,55,0.00,,,0.00,0,weatherlink.com 1.10,2014-07-29 08:14:00,
2014-07-29 01:29:00,67.9,51.0,29.93,SSW,213,0.0,0.0,55,0.00,,,0.00,0,weatherlink.com 1.10,2014-07-29 08:29:00,
2014-07-29 01:44:00,71.0,46.0,29.93,West,277,1.0,4.0,41,0.00,,,0.00,0,weatherlink.com 1.10,2014-07-29 08:44:00,
2014-07-29 01:59:00,71.8,45.0,29.93,West,278,1.0,3.0,38,0.00,,,0.00,0,weatherlink.com 1.10,2014-07-29 08:59:00,
2014-07-29 02:14:00,71.9,45.0,29.94,West,278,2.0,3.0,38,0.00,,,0.00,0,weatherlink.com 1.10,2014-07-29 09:14:00,
2014-07-29 02:29:00,72.1,44.0,29.94,West,278,1.0,3.0,37,0.00,,,0.00,0,weatherlink.com 1.10,2014-07-29 09:29:00,
2014-07-29 02:44:00,71.9,43.0,29.94,West,279,3.0,4.0,36,0.00,,,0.00,0,weatherlink.com 1.10,2014-07-29 09:44:00,
2014-07-29 02:59:00,72.5,43.0,29.94,WNW,285,2.0,6.0,35,0.00,,,0.00,0,weatherlink.com 1.10,2014-07-29 09:59:00,
2014-07-29 03:14:00,72.4,43.0,29.94,West,259,1.0,6.0,35,0.00,,,0.00,0,weatherlink.com 1.10,2014-07-29 10:14:00,
2014-07-29 03:29:00,72.2,43.0,29.94,WSW,247,2.0,4.0,35,0.00,,,0.00,0,weatherlink.com 1.10,2014-07-29 10:29:00,
2014-07-29 03:44:00,71.6,44.0,29.94,West,259,1.0,3.0,37,0.00,,,0.00,0,weatherlink.com 1.10,2014-07-29 10:44:00,
2014-07-29 03:59:00,70.4,45.0,29.95,West,268,0.0,3.0,40,0.00,,,0.00,0,weatherlink.com 1.10,2014-07-29 10:59:00,
2014-07-29 04:14:00,70.3,44.0,29.95,West,260,0.0,4.0,39,0.00,,,0.00,0,weatherlink.com 1.10,2014-07-29 11:14:00,
2014-07-29 04:29:00,72.2,41.0,29.95,NW,305,2.0,6.0,33,0.00,,,0.00,0,weatherlink.com 1.10,2014-07-29 11:29:00,
2014-07-29 04:44:00,71.7,45.0,29.95,WNW,303,0.0,1.0,38,0.00,,,0.00,0,weatherlink.com 1.10,2014-07-29 11:44:00,
2014-07-29 04:59:00,70.2,45.0,29.95,NW,321,0.0,1.0,40,0.00,,,0.00,0,weatherlink.com 1.10,2014-07-29 11:59:00,
2014-07-29 05:14:00,69.4,44.0,29.95,NW,321,0.0,1.0,40,0.00,,,0.00,0,weatherlink.com 1.10,2014-07-29 12:14:00,
2014-07-29 05:29:00,69.7,44.0,29.95,NW,321,0.0,0.0,39,0.00,,,0.00,0,weatherlink.com 1.10,2014-07-29 12:29:00,
2014-07-29 05:44:00,69.2,46.0,29.95,ENE,65,0.0,3.0,43,0.00,,,0.00,0,weatherlink.com 1.10,2014-07-29 12:44:00,
2014-07-29 05:59:00,68.5,46.0,29.96,ENE,65,0.0,0.0,45,0.00,,,0.00,0,weatherlink.com 1.10,2014-07-29 12:59:00,
2014-07-29 06:14:00,67.9,46.0,29.95,ENE,65,0.0,0.0,45,0.00,,,0.00,7,weatherlink.com 1.10,2014-07-29 13:14:00,
2014-07-29 06:29:00,68.5,44.0,29.96,ENE,63,0.0,0.0,41,0.00,,,0.00,18,weatherlink.com 1.10,2014-07-29 13:29:00,
2014-07-29 06:44:00,68.1,46.0,29.95,ENE,63,0.0,1.0,45,0.00,,,0.00,26,weatherlink.com 1.10,2014-07-29 13:44:00,
2014-07-29 06:59:00,68.3,45.0,29.95,ENE,63,0.0,1.0,44,0.00,,,0.00,46,weatherlink.com 1.10,2014-07-29 13:59:00,
2014-07-29 07:14:00,68.9,48.0,29.96,ENE,63,0.0,1.0,47,0.00,,,0.00,67,weatherlink.com 1.10,2014-07-29 14:14:00,
2014-07-29 07:29:00,69.4,47.0,29.96,ENE,63,0.0,1.0,45,0.00,,,0.00,90,weatherlink.com 1.10,2014-07-29 14:29:00,
2014-07-29 07:45:00,71.4,45.0,29.96,NE,44,0.0,3.0,39,0.00,,,0.00,109,weatherlink.com 1.10,2014-07-29 14:45:00,
2014-07-29 08:00:00,72.2,46.0,29.96,NE,44,1.0,2.0,39,0.00,,,0.00,160,weatherlink.com 1.10,2014-07-29 15:00:00,
2014-07-29 08:15:00,73.3,45.0,29.96,ENE,67,0.0,1.0,37,0.00,,,0.00,171,weatherlink.com 1.10,2014-07-29 15:15:00,
2014-07-29 08:30:00,72.9,46.0,29.96,ENE,67,0.0,1.0,38,0.00,,,0.00,213,weatherlink.com 1.10,2014-07-29 15:30:00,
2014-07-29 08:45:00,75.1,47.0,29.95,East,98,1.0,2.0,37,0.00,,,0.00,547,weatherlink.com 1.10,2014-07-29 15:45:00,
2014-07-29 09:00:00,80.3,46.0,29.95,ENE,72,1.0,3.0,30,0.00,,,0.00,548,weatherlink.com 1.10,2014-07-29 16:00:00,
2014-07-29 09:15:00,81.6,43.0,29.94,NNE,30,4.0,6.0,26,0.00,,,0.00,587,weatherlink.com 1.10,2014-07-29 16:15:00,
2014-07-29 09:30:00,82.1,42.0,29.93,NNE,24,1.0,8.0,24,0.00,,,0.00,330,weatherlink.com 1.10,2014-07-29 16:30:00,
2014-07-29 09:45:00,81.0,41.0,29.93,ENE,70,1.0,5.0,24,0.00,,,0.00,371,weatherlink.com 1.10,2014-07-29 16:45:00,
2014-07-29 10:00:00,82.0,41.0,29.93,NE,55,2.0,6.0,23,0.00,,,0.00,332,weatherlink.com 1.10,2014-07-29 17:00:00,
2014-07-29 10:15:00,84.1,40.0,29.93,NE,35,5.0,8.0,21,0.00,,,0.00,729,weatherlink.com 1.10,2014-07-29 17:15:00,
2014-07-29 10:30:00,85.8,42.0,29.93,NNE,31,7.0,9.0,21,0.00,,,0.00,758,weatherlink.com 1.10,2014-07-29 17:30:00,
2014-07-29 10:45:00,87.3,42.0,29.93,East,84,2.0,7.0,20,0.00,,,0.00,800,weatherlink.com 1.10,2014-07-29 17:45:00,
2014-07-29 11:15:00,88.1,42.0,29.92,WSW,250,1.0,8.0,20,0.00,,,0.00,886,weatherlink.com 1.10,2014-07-29 18:15:00,
2014-07-29 11:30:00,89.0,40.0,29.92,WNW,297,4.0,9.0,18,0.00,,,0.00,290,weatherlink.com 1.10,2014-07-29 18:30:00,
2014-07-29 11:45:00,90.8,42.0,29.92,North,11,7.0,10.0,18,0.00,,,0.00,1042,weatherlink.com 1.10,2014-07-29 18:45:00,
2014-07-29 12:00:00,90.8,40.0,29.92,NE,42,16.0,16.0,17,0.00,,,0.00,659,weatherlink.com 1.10,2014-07-29 19:00:00,
2014-07-29 12:15:00,90.0,40.0,29.92,NE,38,6.0,15.0,17,0.00,,,0.00,496,weatherlink.com 1.10,2014-07-29 19:15:00,
2014-07-29 12:30:00,91.4,39.0,29.92,NW,313,5.0,14.0,16,0.00,,,0.00,1018,weatherlink.com 1.10,2014-07-29 19:30:00,
2014-07-29 12:45:00,93.8,38.0,29.91,NE,34,2.0,13.0,14,0.00,,,0.00,816,weatherlink.com 1.10,2014-07-29 19:45:00,
2014-07-29 13:01:00,93.1,39.0,29.91,NNW,331,6.0,14.0,15,0.00,,,0.00,1299,weatherlink.com 1.10,2014-07-29 20:01:00,
2014-07-29 13:16:00,93.0,39.0,29.91,NNW,333,9.0,14.0,15,0.00,,,0.00,1234,weatherlink.com 1.10,2014-07-29 20:16:00,
2014-07-29 13:31:00,92.1,36.0,29.90,NNE,24,7.0,20.0,14,0.00,,,0.00,373,weatherlink.com 1.10,2014-07-29 20:31:00,
2014-07-29 13:46:00,93.8,36.0,29.90,North,355,9.0,14.0,13,0.00,,,0.00,1021,weatherlink.com 1.10,2014-07-29 20:46:00,
2014-07-29 14:01:00,90.7,39.0,29.90,NNW,344,3.0,12.0,16,0.00,,,0.00,332,weatherlink.com 1.10,2014-07-29 21:01:00,
2014-07-29 14:16:00,91.5,38.0,29.90,North,360,1.0,15.0,15,0.00,,,0.00,332,weatherlink.com 1.10,2014-07-29 21:16:00,
2014-07-29 14:31:00,90.1,38.0,29.90,WNW,300,11.0,14.0,16,0.00,,,0.00,417,weatherlink.com 1.10,2014-07-29 21:31:00,
2014-07-29 14:46:00,89.7,39.0,29.89,WNW,298,5.0,15.0,17,0.00,,,0.00,362,weatherlink.com 1.10,2014-07-29 21:46:00,
2014-07-29 15:01:00,90.2,38.0,29.89,NW,317,4.0,15.0,16,0.00,,,0.00,427,weatherlink.com 1.10,2014-07-29 22:01:00,
2014-07-29 15:16:00,90.9,39.0,29.88,North,355,9.0,17.0,16,0.00,,,0.00,369,weatherlink.com 1.10,2014-07-29 22:16:00,
2014-07-29 15:31:00,91.3,38.0,29.88,NW,324,7.0,15.0,15,0.00,,,0.00,355,weatherlink.com 1.10,2014-07-29 22:31:00,
2014-07-29 15:46:00,90.6,37.0,29.88,NNE,16,5.0,13.0,15,0.00,,,0.00,327,weatherlink.com 1.10,2014-07-29 22:46:00,
2014-07-29 16:01:00,89.6,36.0,29.88,North,9,8.0,15.0,15,0.00,,,0.00,323,weatherlink.com 1.10,2014-07-29 23:01:00,
2014-07-29 16:16:00,91.5,38.0,29.87,NNE,23,9.0,16.0,15,0.00,,,0.00,721,weatherlink.com 1.10,2014-07-29 23:16:00,
2014-07-29 16:31:00,91.9,38.0,29.87,North,5,6.0,17.0,15,0.00,,,0.00,680,weatherlink.com 1.10,2014-07-29 23:31:00,
2014-07-29 16:46:00,90.6,39.0,29.87,NNE,22,2.0,13.0,16,0.00,,,0.00,429,weatherlink.com 1.10,2014-07-29 23:46:00,
2014-07-29 17:01:00,91.3,38.0,29.87,NW,317,6.0,12.0,15,0.00,,,0.00,645,weatherlink.com 1.10,2014-07-30 00:01:00,
2014-07-29 17:16:00,91.3,39.0,29.87,NNE,12,7.0,8.0,16,0.00,,,0.00,510,weatherlink.com 1.10,2014-07-30 00:16:00,
2014-07-29 17:31:00,89.2,36.0,29.87,NNE,17,2.0,9.0,15,0.00,,,0.00,232,weatherlink.com 1.10,2014-07-30 00:31:00,
2014-07-29 17:46:00,88.5,37.0,29.86,NNE,22,0.0,4.0,16,0.00,,,0.00,172,weatherlink.com 1.10,2014-07-30 00:46:00,
2014-07-29 18:01:00,89.1,36.0,29.86,NW,326,1.0,4.0,15,0.00,,,0.00,156,weatherlink.com 1.10,2014-07-30 01:01:00,
2014-07-29 18:16:00,89.5,36.0,29.86,NNW,328,4.0,6.0,15,0.00,,,0.00,111,weatherlink.com 1.10,2014-07-30 01:16:00,
2014-07-29 18:31:00,88.4,37.0,29.86,NNE,32,0.0,3.0,16,0.00,,,0.00,98,weatherlink.com 1.10,2014-07-30 01:31:00,